ラロトンガ の空港の天気 - METARとTAF

ラロトンガ国際空港 ( NCRG / RAR ) - クック諸島 アバルア (ラロトンガ島)
飛行場実況気象(Metar)
観測時間10/19 18:00 CKT (10/20 04:00 UTC)
風向・風速東 4m/s
視程10km以上
天気現象
少しの雲 雲底高度 640m
全天の8割程度の雲 雲底高度 910m
気温24℃
湿度83%
気圧1016hPa
METARNCRG 200400Z AUTO 09008KT 060V130 9999 FEW021/// BKN030/// 24/21 Q1016
過去の天気等 Google飛行場航空写真 Wunderground天気予報

過去48時間のMETAR

飛行場予報(TAF)
発表時間: 10/19 13:05 CKT (10/19 23:05 UTC)
予報対象時間: 19日14時 CKT ~ 20日14時 CKT
風向・風速東 6m/s
視程8000m
天気現象弱いしゅう雨
全天の4割程度の雲 雲底高度 240m
全天の8割程度の雲 雲底高度 490m
全天を覆う雲 雲底高度 2440m
19日14時 CKT ~ 20日2時 CKT に 確率 40% で一時的に
視程5000m
天気現象雷雨
全天の8割程度の雲 雲底高度 430m
少しの積乱雲 雲底高度 550m
TAF NCRG 192305Z 2000/2024 08011KT 8000 -SHRA SCT008 BKN016 OVC080
PROB40 TEMPO 2000/2012 5000 TSRA BKN014 FEW018CB